sensor_id;sensor_type;location;lat;lon;timestamp;P1;durP1;ratioP1;P2;durP2;ratioP2
84288;SDS011;75147;50.294;18.660;2024-03-25T00:01:53;4.90;;;2.55;;
84288;SDS011;75147;50.294;18.660;2024-03-25T00:04:18;6.55;;;2.88;;
84288;SDS011;75147;50.294;18.660;2024-03-25T00:06:45;3.25;;;2.50;;
84288;SDS011;75147;50.294;18.660;2024-03-25T00:09:11;5.03;;;2.90;;
84288;SDS011;75147;50.294;18.660;2024-03-25T00:11:39;6.80;;;2.63;;
84288;SDS011;75147;50.294;18.660;2024-03-25T00:14:05;5.63;;;2.60;;
84288;SDS011;75147;50.294;18.660;2024-03-25T00:16:30;4.07;;;2.20;;
84288;SDS011;75147;50.294;18.660;2024-03-25T00:18:56;4.03;;;2.28;;
84288;SDS011;75147;50.294;18.660;2024-03-25T00:21:21;5.20;;;2.67;;
84288;SDS011;75147;50.294;18.660;2024-03-25T00:23:47;4.63;;;2.90;;
84288;SDS011;75147;50.294;18.660;2024-03-25T00:26:12;7.65;;;3.38;;
84288;SDS011;75147;50.294;18.660;2024-03-25T00:28:37;6.45;;;3.38;;
84288;SDS011;75147;50.294;18.660;2024-03-25T00:31:03;5.47;;;2.90;;
84288;SDS011;75147;50.294;18.660;2024-03-25T00:33:29;6.85;;;3.25;;
84288;SDS011;75147;50.294;18.660;2024-03-25T00:35:54;3.85;;;2.88;;
84288;SDS011;75147;50.294;18.660;2024-03-25T00:38:19;5.00;;;3.10;;
84288;SDS011;75147;50.294;18.660;2024-03-25T00:40:45;6.50;;;3.30;;
84288;SDS011;75147;50.294;18.660;2024-03-25T00:43:10;5.05;;;3.08;;
84288;SDS011;75147;50.294;18.660;2024-03-25T00:45:36;5.13;;;3.08;;
84288;SDS011;75147;50.294;18.660;2024-03-25T00:48:02;5.43;;;3.08;;
84288;SDS011;75147;50.294;18.660;2024-03-25T00:50:27;6.63;;;3.58;;
84288;SDS011;75147;50.294;18.660;2024-03-25T00:52:53;4.82;;;2.90;;
84288;SDS011;75147;50.294;18.660;2024-03-25T00:55:18;5.57;;;3.60;;
84288;SDS011;75147;50.294;18.660;2024-03-25T00:57:44;5.43;;;2.70;;
84288;SDS011;75147;50.294;18.660;2024-03-25T01:00:09;4.22;;;2.88;;
84288;SDS011;75147;50.294;18.660;2024-03-25T01:02:35;4.40;;;2.95;;
84288;SDS011;75147;50.294;18.660;2024-03-25T01:05:02;4.78;;;3.45;;
84288;SDS011;75147;50.294;18.660;2024-03-25T01:07:28;5.60;;;3.70;;
84288;SDS011;75147;50.294;18.660;2024-03-25T01:09:53;4.18;;;3.03;;
84288;SDS011;75147;50.294;18.660;2024-03-25T01:12:19;9.48;;;4.03;;
84288;SDS011;75147;50.294;18.660;2024-03-25T01:14:44;6.05;;;3.50;;
84288;SDS011;75147;50.294;18.660;2024-03-25T01:17:09;4.67;;;3.30;;
84288;SDS011;75147;50.294;18.660;2024-03-25T01:19:36;6.53;;;3.58;;
84288;SDS011;75147;50.294;18.660;2024-03-25T01:22:01;5.50;;;3.57;;
84288;SDS011;75147;50.294;18.660;2024-03-25T01:24:27;5.10;;;3.58;;
84288;SDS011;75147;50.294;18.660;2024-03-25T01:26:52;6.57;;;3.83;;
84288;SDS011;75147;50.294;18.660;2024-03-25T01:29:17;6.57;;;3.72;;
84288;SDS011;75147;50.294;18.660;2024-03-25T01:31:43;5.75;;;3.22;;
84288;SDS011;75147;50.294;18.660;2024-03-25T01:34:09;6.72;;;3.58;;
84288;SDS011;75147;50.294;18.660;2024-03-25T01:36:34;5.47;;;3.47;;
84288;SDS011;75147;50.294;18.660;2024-03-25T01:39:00;5.65;;;3.75;;
84288;SDS011;75147;50.294;18.660;2024-03-25T01:41:25;5.20;;;3.03;;
84288;SDS011;75147;50.294;18.660;2024-03-25T01:43:51;5.18;;;3.33;;
84288;SDS011;75147;50.294;18.660;2024-03-25T01:46:17;5.28;;;3.15;;
84288;SDS011;75147;50.294;18.660;2024-03-25T01:48:44;6.43;;;3.85;;
84288;SDS011;75147;50.294;18.660;2024-03-25T01:51:10;5.47;;;3.15;;
84288;SDS011;75147;50.294;18.660;2024-03-25T01:53:37;5.50;;;2.88;;
84288;SDS011;75147;50.294;18.660;2024-03-25T01:56:03;6.38;;;3.22;;
84288;SDS011;75147;50.294;18.660;2024-03-25T01:58:30;6.28;;;3.22;;
84288;SDS011;75147;50.294;18.660;2024-03-25T02:00:56;3.80;;;3.15;;
84288;SDS011;75147;50.294;18.660;2024-03-25T02:03:26;6.63;;;3.58;;
84288;SDS011;75147;50.294;18.660;2024-03-25T02:05:54;5.20;;;3.15;;
84288;SDS011;75147;50.294;18.660;2024-03-25T02:08:23;6.13;;;3.33;;
84288;SDS011;75147;50.294;18.660;2024-03-25T02:10:50;5.32;;;3.42;;
84288;SDS011;75147;50.294;18.660;2024-03-25T02:13:17;5.85;;;3.60;;
84288;SDS011;75147;50.294;18.660;2024-03-25T02:15:43;6.45;;;3.47;;
84288;SDS011;75147;50.294;18.660;2024-03-25T02:18:08;4.90;;;3.22;;
84288;SDS011;75147;50.294;18.660;2024-03-25T02:20:34;5.88;;;4.00;;
84288;SDS011;75147;50.294;18.660;2024-03-25T02:22:59;7.03;;;3.72;;
84288;SDS011;75147;50.294;18.660;2024-03-25T02:25:25;4.70;;;3.25;;
84288;SDS011;75147;50.294;18.660;2024-03-25T02:27:50;6.88;;;3.67;;
84288;SDS011;75147;50.294;18.660;2024-03-25T02:30:16;5.18;;;3.40;;
84288;SDS011;75147;50.294;18.660;2024-03-25T02:32:41;5.53;;;3.72;;
84288;SDS011;75147;50.294;18.660;2024-03-25T02:35:08;6.78;;;3.38;;
84288;SDS011;75147;50.294;18.660;2024-03-25T02:37:35;6.68;;;3.70;;
84288;SDS011;75147;50.294;18.660;2024-03-25T02:40:02;7.28;;;4.03;;
84288;SDS011;75147;50.294;18.660;2024-03-25T02:42:30;6.47;;;3.80;;
84288;SDS011;75147;50.294;18.660;2024-03-25T02:44:56;5.25;;;3.75;;
84288;SDS011;75147;50.294;18.660;2024-03-25T02:47:22;7.70;;;4.03;;
84288;SDS011;75147;50.294;18.660;2024-03-25T02:49:47;6.35;;;3.83;;
84288;SDS011;75147;50.294;18.660;2024-03-25T02:52:13;6.85;;;3.88;;
84288;SDS011;75147;50.294;18.660;2024-03-25T02:54:39;5.65;;;3.53;;
84288;SDS011;75147;50.294;18.660;2024-03-25T02:57:04;6.93;;;4.25;;
84288;SDS011;75147;50.294;18.660;2024-03-25T02:59:29;6.68;;;3.45;;
84288;SDS011;75147;50.294;18.660;2024-03-25T03:01:55;6.55;;;3.95;;
84288;SDS011;75147;50.294;18.660;2024-03-25T03:04:20;8.40;;;3.78;;
84288;SDS011;75147;50.294;18.660;2024-03-25T03:06:46;7.32;;;4.32;;
84288;SDS011;75147;50.294;18.660;2024-03-25T03:09:11;5.47;;;3.45;;
84288;SDS011;75147;50.294;18.660;2024-03-25T03:11:36;6.00;;;3.75;;
84288;SDS011;75147;50.294;18.660;2024-03-25T03:14:02;5.32;;;3.80;;
84288;SDS011;75147;50.294;18.660;2024-03-25T03:16:27;4.50;;;3.55;;
84288;SDS011;75147;50.294;18.660;2024-03-25T03:18:54;5.90;;;3.78;;
84288;SDS011;75147;50.294;18.660;2024-03-25T03:21:19;5.85;;;3.45;;
84288;SDS011;75147;50.294;18.660;2024-03-25T03:23:45;4.18;;;3.47;;
84288;SDS011;75147;50.294;18.660;2024-03-25T03:26:10;6.20;;;4.23;;
84288;SDS011;75147;50.294;18.660;2024-03-25T03:28:35;6.53;;;3.80;;
84288;SDS011;75147;50.294;18.660;2024-03-25T03:31:01;6.88;;;3.85;;
84288;SDS011;75147;50.294;18.660;2024-03-25T03:33:26;6.60;;;4.00;;
84288;SDS011;75147;50.294;18.660;2024-03-25T03:35:52;5.13;;;3.60;;
84288;SDS011;75147;50.294;18.660;2024-03-25T03:38:17;7.95;;;4.20;;
84288;SDS011;75147;50.294;18.660;2024-03-25T03:40:44;5.40;;;3.88;;
84288;SDS011;75147;50.294;18.660;2024-03-25T03:43:20;5.65;;;3.60;;
84288;SDS011;75147;50.294;18.660;2024-03-25T03:45:45;5.72;;;3.80;;
84288;SDS011;75147;50.294;18.660;2024-03-25T03:48:10;5.47;;;3.83;;
84288;SDS011;75147;50.294;18.660;2024-03-25T03:50:36;6.63;;;3.63;;
84288;SDS011;75147;50.294;18.660;2024-03-25T03:53:01;10.43;;;3.47;;
84288;SDS011;75147;50.294;18.660;2024-03-25T03:55:26;5.05;;;2.83;;
84288;SDS011;75147;50.294;18.660;2024-03-25T03:57:52;5.65;;;3.30;;
84288;SDS011;75147;50.294;18.660;2024-03-25T04:00:17;7.20;;;3.53;;
84288;SDS011;75147;50.294;18.660;2024-03-25T04:02:43;5.97;;;3.10;;
84288;SDS011;75147;50.294;18.660;2024-03-25T04:05:08;3.90;;;3.00;;
84288;SDS011;75147;50.294;18.660;2024-03-25T04:07:33;4.25;;;2.75;;
84288;SDS011;75147;50.294;18.660;2024-03-25T04:09:59;5.05;;;3.10;;
84288;SDS011;75147;50.294;18.660;2024-03-25T04:12:24;4.60;;;3.05;;
84288;SDS011;75147;50.294;18.660;2024-03-25T04:14:50;4.45;;;3.00;;
84288;SDS011;75147;50.294;18.660;2024-03-25T04:17:20;4.38;;;3.00;;
84288;SDS011;75147;50.294;18.660;2024-03-25T04:19:46;4.78;;;2.75;;
84288;SDS011;75147;50.294;18.660;2024-03-25T04:22:12;4.13;;;3.03;;
84288;SDS011;75147;50.294;18.660;2024-03-25T04:24:37;5.30;;;3.42;;
84288;SDS011;75147;50.294;18.660;2024-03-25T04:27:02;4.82;;;2.80;;
84288;SDS011;75147;50.294;18.660;2024-03-25T04:29:28;4.28;;;2.85;;
84288;SDS011;75147;50.294;18.660;2024-03-25T04:31:54;4.82;;;3.20;;
84288;SDS011;75147;50.294;18.660;2024-03-25T04:34:19;4.30;;;3.17;;
84288;SDS011;75147;50.294;18.660;2024-03-25T04:36:45;5.97;;;3.40;;
84288;SDS011;75147;50.294;18.660;2024-03-25T04:39:11;4.15;;;3.03;;
84288;SDS011;75147;50.294;18.660;2024-03-25T04:41:36;4.65;;;2.80;;
84288;SDS011;75147;50.294;18.660;2024-03-25T04:44:02;5.30;;;3.30;;
84288;SDS011;75147;50.294;18.660;2024-03-25T04:46:27;5.82;;;3.65;;
84288;SDS011;75147;50.294;18.660;2024-03-25T04:48:52;5.55;;;3.42;;
84288;SDS011;75147;50.294;18.660;2024-03-25T04:51:18;6.72;;;3.53;;
84288;SDS011;75147;50.294;18.660;2024-03-25T04:53:44;6.65;;;4.57;;
84288;SDS011;75147;50.294;18.660;2024-03-25T04:56:09;6.90;;;4.05;;
84288;SDS011;75147;50.294;18.660;2024-03-25T04:58:35;5.90;;;3.83;;
84288;SDS011;75147;50.294;18.660;2024-03-25T05:01:00;6.50;;;4.40;;
84288;SDS011;75147;50.294;18.660;2024-03-25T05:03:26;7.00;;;4.40;;
84288;SDS011;75147;50.294;18.660;2024-03-25T05:05:51;6.27;;;4.27;;
84288;SDS011;75147;50.294;18.660;2024-03-25T05:08:16;6.70;;;4.00;;
84288;SDS011;75147;50.294;18.660;2024-03-25T05:10:42;8.90;;;4.53;;
84288;SDS011;75147;50.294;18.660;2024-03-25T05:13:07;6.53;;;4.70;;
84288;SDS011;75147;50.294;18.660;2024-03-25T05:15:32;6.07;;;4.80;;
84288;SDS011;75147;50.294;18.660;2024-03-25T05:17:58;6.40;;;4.37;;
84288;SDS011;75147;50.294;18.660;2024-03-25T05:20:23;6.90;;;4.25;;
84288;SDS011;75147;50.294;18.660;2024-03-25T05:22:49;7.82;;;5.30;;
84288;SDS011;75147;50.294;18.660;2024-03-25T05:25:14;7.75;;;4.63;;
84288;SDS011;75147;50.294;18.660;2024-03-25T05:27:40;7.70;;;4.53;;
84288;SDS011;75147;50.294;18.660;2024-03-25T05:30:05;7.93;;;4.38;;
84288;SDS011;75147;50.294;18.660;2024-03-25T05:32:31;7.70;;;4.47;;
84288;SDS011;75147;50.294;18.660;2024-03-25T05:34:56;7.05;;;4.55;;
84288;SDS011;75147;50.294;18.660;2024-03-25T05:37:22;7.40;;;4.10;;
84288;SDS011;75147;50.294;18.660;2024-03-25T05:39:47;8.20;;;5.28;;
84288;SDS011;75147;50.294;18.660;2024-03-25T05:42:12;6.77;;;4.50;;
84288;SDS011;75147;50.294;18.660;2024-03-25T05:44:38;7.80;;;4.63;;
84288;SDS011;75147;50.294;18.660;2024-03-25T05:47:03;6.90;;;3.92;;
84288;SDS011;75147;50.294;18.660;2024-03-25T05:49:28;7.47;;;4.43;;
84288;SDS011;75147;50.294;18.660;2024-03-25T05:51:54;7.00;;;4.32;;
84288;SDS011;75147;50.294;18.660;2024-03-25T05:54:19;8.77;;;4.20;;
84288;SDS011;75147;50.294;18.660;2024-03-25T05:56:45;7.05;;;4.35;;
84288;SDS011;75147;50.294;18.660;2024-03-25T05:59:10;7.03;;;4.15;;
84288;SDS011;75147;50.294;18.660;2024-03-25T06:01:35;6.07;;;3.60;;
84288;SDS011;75147;50.294;18.660;2024-03-25T06:04:02;7.47;;;4.85;;
84288;SDS011;75147;50.294;18.660;2024-03-25T06:06:28;5.15;;;3.45;;
84288;SDS011;75147;50.294;18.660;2024-03-25T06:08:53;5.88;;;3.75;;
84288;SDS011;75147;50.294;18.660;2024-03-25T06:11:19;6.07;;;4.10;;
84288;SDS011;75147;50.294;18.660;2024-03-25T06:13:47;6.05;;;4.30;;
84288;SDS011;75147;50.294;18.660;2024-03-25T06:16:13;7.32;;;4.82;;
84288;SDS011;75147;50.294;18.660;2024-03-25T06:18:39;8.07;;;4.85;;
84288;SDS011;75147;50.294;18.660;2024-03-25T06:21:07;7.65;;;4.75;;
84288;SDS011;75147;50.294;18.660;2024-03-25T06:23:32;7.72;;;4.07;;
84288;SDS011;75147;50.294;18.660;2024-03-25T06:25:58;5.88;;;3.83;;
84288;SDS011;75147;50.294;18.660;2024-03-25T06:28:24;5.65;;;3.80;;
84288;SDS011;75147;50.294;18.660;2024-03-25T06:30:51;4.95;;;3.17;;
84288;SDS011;75147;50.294;18.660;2024-03-25T06:33:35;5.57;;;3.65;;
84288;SDS011;75147;50.294;18.660;2024-03-25T06:36:20;6.53;;;3.50;;
84288;SDS011;75147;50.294;18.660;2024-03-25T06:38:46;6.85;;;3.42;;
84288;SDS011;75147;50.294;18.660;2024-03-25T06:41:11;4.75;;;3.40;;
84288;SDS011;75147;50.294;18.660;2024-03-25T06:43:37;5.93;;;3.50;;
84288;SDS011;75147;50.294;18.660;2024-03-25T06:46:03;4.47;;;2.95;;
84288;SDS011;75147;50.294;18.660;2024-03-25T06:48:29;4.35;;;2.90;;
84288;SDS011;75147;50.294;18.660;2024-03-25T06:50:58;5.95;;;3.50;;
84288;SDS011;75147;50.294;18.660;2024-03-25T06:53:24;6.68;;;3.33;;
84288;SDS011;75147;50.294;18.660;2024-03-25T06:58:19;5.30;;;3.58;;
84288;SDS011;75147;50.294;18.660;2024-03-25T07:00:46;5.80;;;3.05;;
84288;SDS011;75147;50.294;18.660;2024-03-25T07:03:11;4.70;;;3.33;;
84288;SDS011;75147;50.294;18.660;2024-03-25T07:05:37;4.00;;;3.15;;
84288;SDS011;75147;50.294;18.660;2024-03-25T07:08:02;6.72;;;3.15;;
84288;SDS011;75147;50.294;18.660;2024-03-25T07:10:28;4.47;;;3.15;;
84288;SDS011;75147;50.294;18.660;2024-03-25T07:12:53;4.10;;;3.00;;
84288;SDS011;75147;50.294;18.660;2024-03-25T07:15:18;4.43;;;3.30;;
84288;SDS011;75147;50.294;18.660;2024-03-25T07:17:44;4.13;;;2.95;;
84288;SDS011;75147;50.294;18.660;2024-03-25T07:20:10;5.87;;;2.73;;
84288;SDS011;75147;50.294;18.660;2024-03-25T07:22:36;3.58;;;2.30;;
84288;SDS011;75147;50.294;18.660;2024-03-25T07:25:01;4.30;;;2.75;;
84288;SDS011;75147;50.294;18.660;2024-03-25T07:27:26;5.78;;;2.67;;
84288;SDS011;75147;50.294;18.660;2024-03-25T07:29:52;4.03;;;2.80;;
84288;SDS011;75147;50.294;18.660;2024-03-25T07:32:17;4.28;;;2.88;;
84288;SDS011;75147;50.294;18.660;2024-03-25T07:34:42;5.35;;;3.33;;
84288;SDS011;75147;50.294;18.660;2024-03-25T07:37:08;4.75;;;3.33;;
84288;SDS011;75147;50.294;18.660;2024-03-25T07:39:33;4.90;;;2.50;;
84288;SDS011;75147;50.294;18.660;2024-03-25T07:41:58;4.05;;;2.40;;
84288;SDS011;75147;50.294;18.660;2024-03-25T07:44:24;4.00;;;2.70;;
84288;SDS011;75147;50.294;18.660;2024-03-25T07:46:50;4.78;;;3.20;;
84288;SDS011;75147;50.294;18.660;2024-03-25T07:49:15;5.70;;;3.25;;
84288;SDS011;75147;50.294;18.660;2024-03-25T07:51:41;5.13;;;3.22;;
84288;SDS011;75147;50.294;18.660;2024-03-25T07:54:06;4.45;;;2.92;;
84288;SDS011;75147;50.294;18.660;2024-03-25T07:56:32;4.95;;;3.03;;
84288;SDS011;75147;50.294;18.660;2024-03-25T07:59:02;5.10;;;3.70;;
84288;SDS011;75147;50.294;18.660;2024-03-25T08:01:27;5.20;;;3.15;;
84288;SDS011;75147;50.294;18.660;2024-03-25T08:03:52;5.65;;;3.40;;
84288;SDS011;75147;50.294;18.660;2024-03-25T08:06:18;5.97;;;3.70;;
84288;SDS011;75147;50.294;18.660;2024-03-25T08:08:46;5.57;;;3.53;;
84288;SDS011;75147;50.294;18.660;2024-03-25T08:11:11;8.15;;;4.03;;
84288;SDS011;75147;50.294;18.660;2024-03-25T08:13:37;4.93;;;2.87;;
84288;SDS011;75147;50.294;18.660;2024-03-25T08:16:02;5.55;;;4.00;;
84288;SDS011;75147;50.294;18.660;2024-03-25T08:18:28;5.80;;;3.95;;
84288;SDS011;75147;50.294;18.660;2024-03-25T08:20:54;4.78;;;2.90;;
84288;SDS011;75147;50.294;18.660;2024-03-25T08:23:19;4.38;;;2.75;;
84288;SDS011;75147;50.294;18.660;2024-03-25T08:25:44;4.70;;;2.92;;
84288;SDS011;75147;50.294;18.660;2024-03-25T08:28:10;4.30;;;3.10;;
84288;SDS011;75147;50.294;18.660;2024-03-25T08:30:35;3.30;;;2.53;;
84288;SDS011;75147;50.294;18.660;2024-03-25T08:33:01;5.10;;;2.60;;
84288;SDS011;75147;50.294;18.660;2024-03-25T08:35:26;3.70;;;2.60;;
84288;SDS011;75147;50.294;18.660;2024-03-25T08:37:52;4.17;;;2.27;;
84288;SDS011;75147;50.294;18.660;2024-03-25T08:40:17;3.83;;;2.00;;
84288;SDS011;75147;50.294;18.660;2024-03-25T08:42:43;4.55;;;2.60;;
84288;SDS011;75147;50.294;18.660;2024-03-25T08:45:08;3.38;;;2.47;;
84288;SDS011;75147;50.294;18.660;2024-03-25T08:47:34;3.15;;;1.98;;
84288;SDS011;75147;50.294;18.660;2024-03-25T08:49:59;4.07;;;1.80;;
84288;SDS011;75147;50.294;18.660;2024-03-25T08:52:25;3.15;;;2.20;;
84288;SDS011;75147;50.294;18.660;2024-03-25T08:54:50;2.90;;;2.17;;
84288;SDS011;75147;50.294;18.660;2024-03-25T08:57:15;3.20;;;2.38;;
84288;SDS011;75147;50.294;18.660;2024-03-25T08:59:41;3.47;;;2.10;;
84288;SDS011;75147;50.294;18.660;2024-03-25T09:02:06;3.10;;;2.07;;
84288;SDS011;75147;50.294;18.660;2024-03-25T09:04:32;3.17;;;2.58;;
84288;SDS011;75147;50.294;18.660;2024-03-25T09:06:58;4.35;;;2.72;;
84288;SDS011;75147;50.294;18.660;2024-03-25T09:09:23;3.65;;;1.80;;
84288;SDS011;75147;50.294;18.660;2024-03-25T09:12:07;4.47;;;2.30;;
84288;SDS011;75147;50.294;18.660;2024-03-25T09:14:32;4.65;;;2.78;;
84288;SDS011;75147;50.294;18.660;2024-03-25T09:16:58;3.50;;;1.95;;
84288;SDS011;75147;50.294;18.660;2024-03-25T09:19:24;4.05;;;2.58;;
84288;SDS011;75147;50.294;18.660;2024-03-25T09:21:49;2.80;;;2.08;;
84288;SDS011;75147;50.294;18.660;2024-03-25T09:24:15;3.78;;;2.08;;
84288;SDS011;75147;50.294;18.660;2024-03-25T09:26:42;4.03;;;2.40;;
84288;SDS011;75147;50.294;18.660;2024-03-25T09:29:08;3.53;;;2.40;;
84288;SDS011;75147;50.294;18.660;2024-03-25T09:31:33;3.42;;;2.58;;
84288;SDS011;75147;50.294;18.660;2024-03-25T09:33:58;2.75;;;2.10;;
84288;SDS011;75147;50.294;18.660;2024-03-25T09:36:24;5.68;;;2.30;;
84288;SDS011;75147;50.294;18.660;2024-03-25T09:38:49;2.45;;;1.90;;
84288;SDS011;75147;50.294;18.660;2024-03-25T09:41:16;2.90;;;1.92;;
84288;SDS011;75147;50.294;18.660;2024-03-25T09:43:47;3.10;;;1.92;;
84288;SDS011;75147;50.294;18.660;2024-03-25T09:46:15;3.25;;;2.33;;
84288;SDS011;75147;50.294;18.660;2024-03-25T09:48:41;3.05;;;2.15;;
84288;SDS011;75147;50.294;18.660;2024-03-25T09:51:07;3.40;;;2.70;;
84288;SDS011;75147;50.294;18.660;2024-03-25T09:53:34;2.92;;;1.92;;
84288;SDS011;75147;50.294;18.660;2024-03-25T09:56:00;3.03;;;2.00;;
84288;SDS011;75147;50.294;18.660;2024-03-25T09:58:26;2.45;;;1.90;;
84288;SDS011;75147;50.294;18.660;2024-03-25T10:00:52;2.47;;;1.88;;
84288;SDS011;75147;50.294;18.660;2024-03-25T10:03:18;2.50;;;1.88;;
84288;SDS011;75147;50.294;18.660;2024-03-25T10:05:43;2.65;;;1.90;;
84288;SDS011;75147;50.294;18.660;2024-03-25T10:08:09;2.50;;;1.90;;
84288;SDS011;75147;50.294;18.660;2024-03-25T10:10:35;2.15;;;1.75;;
84288;SDS011;75147;50.294;18.660;2024-03-25T10:13:02;2.55;;;2.00;;
84288;SDS011;75147;50.294;18.660;2024-03-25T10:15:30;2.60;;;2.10;;
84288;SDS011;75147;50.294;18.660;2024-03-25T10:17:55;2.95;;;2.00;;
84288;SDS011;75147;50.294;18.660;2024-03-25T10:20:21;1.85;;;1.45;;
84288;SDS011;75147;50.294;18.660;2024-03-25T10:22:47;2.30;;;1.60;;
84288;SDS011;75147;50.294;18.660;2024-03-25T10:25:26;1.65;;;1.15;;
84288;SDS011;75147;50.294;18.660;2024-03-25T10:27:53;1.92;;;1.27;;
84288;SDS011;75147;50.294;18.660;2024-03-25T10:30:19;1.67;;;1.30;;
84288;SDS011;75147;50.294;18.660;2024-03-25T10:32:45;2.30;;;1.35;;
84288;SDS011;75147;50.294;18.660;2024-03-25T10:35:10;2.17;;;1.50;;
84288;SDS011;75147;50.294;18.660;2024-03-25T10:37:38;2.13;;;1.40;;
84288;SDS011;75147;50.294;18.660;2024-03-25T10:40:04;2.95;;;1.60;;
84288;SDS011;75147;50.294;18.660;2024-03-25T10:42:32;2.08;;;1.50;;
84288;SDS011;75147;50.294;18.660;2024-03-25T10:44:59;1.33;;;1.20;;
84288;SDS011;75147;50.294;18.660;2024-03-25T10:47:25;2.30;;;1.42;;
84288;SDS011;75147;50.294;18.660;2024-03-25T10:49:57;3.50;;;2.40;;
84288;SDS011;75147;50.294;18.660;2024-03-25T10:52:24;1.70;;;1.40;;
84288;SDS011;75147;50.294;18.660;2024-03-25T10:54:51;4.15;;;1.77;;
84288;SDS011;75147;50.294;18.660;2024-03-25T10:57:19;2.65;;;1.50;;
84288;SDS011;75147;50.294;18.660;2024-03-25T10:59:45;3.83;;;1.67;;
84288;SDS011;75147;50.294;18.660;2024-03-25T11:02:12;3.17;;;1.90;;
84288;SDS011;75147;50.294;18.660;2024-03-25T11:04:38;2.33;;;1.60;;
84288;SDS011;75147;50.294;18.660;2024-03-25T11:07:15;2.20;;;1.52;;
84288;SDS011;75147;50.294;18.660;2024-03-25T11:09:41;2.17;;;1.48;;
84288;SDS011;75147;50.294;18.660;2024-03-25T11:12:11;2.60;;;1.80;;
84288;SDS011;75147;50.294;18.660;2024-03-25T11:14:37;2.80;;;1.98;;
84288;SDS011;75147;50.294;18.660;2024-03-25T11:17:13;3.20;;;2.05;;
84288;SDS011;75147;50.294;18.660;2024-03-25T11:19:42;2.30;;;1.70;;
84288;SDS011;75147;50.294;18.660;2024-03-25T11:22:08;3.05;;;2.13;;
84288;SDS011;75147;50.294;18.660;2024-03-25T11:24:35;2.53;;;2.08;;
84288;SDS011;75147;50.294;18.660;2024-03-25T11:27:02;2.45;;;1.80;;
84288;SDS011;75147;50.294;18.660;2024-03-25T11:29:31;3.33;;;2.15;;
84288;SDS011;75147;50.294;18.660;2024-03-25T11:31:56;3.20;;;2.10;;
84288;SDS011;75147;50.294;18.660;2024-03-25T11:34:26;3.40;;;2.03;;
84288;SDS011;75147;50.294;18.660;2024-03-25T11:36:52;4.25;;;2.10;;
84288;SDS011;75147;50.294;18.660;2024-03-25T11:39:21;2.58;;;1.90;;
84288;SDS011;75147;50.294;18.660;2024-03-25T11:41:47;2.65;;;1.48;;
84288;SDS011;75147;50.294;18.660;2024-03-25T11:44:12;2.30;;;1.45;;
84288;SDS011;75147;50.294;18.660;2024-03-25T11:46:38;1.98;;;1.30;;
84288;SDS011;75147;50.294;18.660;2024-03-25T11:49:07;1.80;;;1.35;;
84288;SDS011;75147;50.294;18.660;2024-03-25T11:51:37;2.67;;;1.88;;
84288;SDS011;75147;50.294;18.660;2024-03-25T11:54:05;3.08;;;1.80;;
84288;SDS011;75147;50.294;18.660;2024-03-25T11:56:31;1.77;;;1.40;;
84288;SDS011;75147;50.294;18.660;2024-03-25T11:58:57;3.90;;;1.85;;
84288;SDS011;75147;50.294;18.660;2024-03-25T12:01:25;2.22;;;1.60;;
84288;SDS011;75147;50.294;18.660;2024-03-25T12:03:50;2.95;;;2.00;;
84288;SDS011;75147;50.294;18.660;2024-03-25T12:06:16;3.20;;;2.05;;
84288;SDS011;75147;50.294;18.660;2024-03-25T12:08:41;3.03;;;1.85;;
84288;SDS011;75147;50.294;18.660;2024-03-25T12:11:27;3.85;;;2.00;;
84288;SDS011;75147;50.294;18.660;2024-03-25T12:13:52;2.60;;;1.80;;
84288;SDS011;75147;50.294;18.660;2024-03-25T12:16:18;2.78;;;1.70;;
84288;SDS011;75147;50.294;18.660;2024-03-25T12:18:44;2.03;;;1.30;;
84288;SDS011;75147;50.294;18.660;2024-03-25T12:21:10;2.13;;;1.55;;
84288;SDS011;75147;50.294;18.660;2024-03-25T12:23:36;2.25;;;1.70;;
84288;SDS011;75147;50.294;18.660;2024-03-25T12:26:02;2.60;;;1.60;;
84288;SDS011;75147;50.294;18.660;2024-03-25T12:28:30;3.38;;;2.00;;
84288;SDS011;75147;50.294;18.660;2024-03-25T12:30:56;3.00;;;1.90;;
84288;SDS011;75147;50.294;18.660;2024-03-25T12:33:25;2.95;;;1.60;;
84288;SDS011;75147;50.294;18.660;2024-03-25T12:35:51;2.90;;;2.00;;
84288;SDS011;75147;50.294;18.660;2024-03-25T12:38:30;4.13;;;2.53;;
84288;SDS011;75147;50.294;18.660;2024-03-25T12:41:06;4.28;;;2.08;;
84288;SDS011;75147;50.294;18.660;2024-03-25T12:43:34;3.25;;;2.15;;
84288;SDS011;75147;50.294;18.660;2024-03-25T12:46:00;2.30;;;1.50;;
84288;SDS011;75147;50.294;18.660;2024-03-25T12:48:28;2.50;;;2.03;;
84288;SDS011;75147;50.294;18.660;2024-03-25T12:50:54;3.40;;;1.77;;
84288;SDS011;75147;50.294;18.660;2024-03-25T12:53:19;2.60;;;1.67;;
84288;SDS011;75147;50.294;18.660;2024-03-25T12:55:45;2.40;;;1.60;;
84288;SDS011;75147;50.294;18.660;2024-03-25T12:58:11;2.30;;;1.50;;
84288;SDS011;75147;50.294;18.660;2024-03-25T13:00:37;2.58;;;1.75;;
84288;SDS011;75147;50.294;18.660;2024-03-25T13:03:03;2.28;;;1.60;;
84288;SDS011;75147;50.294;18.660;2024-03-25T13:05:30;2.65;;;1.70;;
84288;SDS011;75147;50.294;18.660;2024-03-25T13:07:55;2.88;;;1.90;;
84288;SDS011;75147;50.294;18.660;2024-03-25T13:10:21;3.22;;;2.00;;
84288;SDS011;75147;50.294;18.660;2024-03-25T13:12:46;2.80;;;1.90;;
84288;SDS011;75147;50.294;18.660;2024-03-25T13:15:12;2.63;;;1.80;;
84288;SDS011;75147;50.294;18.660;2024-03-25T13:17:37;2.42;;;1.60;;
84288;SDS011;75147;50.294;18.660;2024-03-25T13:20:03;2.67;;;1.67;;
84288;SDS011;75147;50.294;18.660;2024-03-25T13:22:29;2.40;;;1.80;;
84288;SDS011;75147;50.294;18.660;2024-03-25T13:24:57;3.20;;;2.10;;
84288;SDS011;75147;50.294;18.660;2024-03-25T13:27:23;3.15;;;2.05;;
84288;SDS011;75147;50.294;18.660;2024-03-25T13:29:48;3.03;;;2.10;;
84288;SDS011;75147;50.294;18.660;2024-03-25T13:32:13;3.17;;;1.95;;
84288;SDS011;75147;50.294;18.660;2024-03-25T13:34:39;2.78;;;1.98;;
84288;SDS011;75147;50.294;18.660;2024-03-25T13:37:04;3.35;;;2.15;;
84288;SDS011;75147;50.294;18.660;2024-03-25T13:39:30;3.67;;;2.40;;
84288;SDS011;75147;50.294;18.660;2024-03-25T13:41:55;3.10;;;1.90;;
84288;SDS011;75147;50.294;18.660;2024-03-25T13:44:21;4.25;;;2.20;;
84288;SDS011;75147;50.294;18.660;2024-03-25T13:46:46;3.42;;;2.10;;
84288;SDS011;75147;50.294;18.660;2024-03-25T13:49:11;2.53;;;1.80;;
84288;SDS011;75147;50.294;18.660;2024-03-25T13:51:37;3.22;;;2.10;;
84288;SDS011;75147;50.294;18.660;2024-03-25T13:54:02;2.77;;;1.90;;
84288;SDS011;75147;50.294;18.660;2024-03-25T13:56:28;2.97;;;2.00;;
84288;SDS011;75147;50.294;18.660;2024-03-25T13:58:53;2.75;;;1.90;;
84288;SDS011;75147;50.294;18.660;2024-03-25T14:01:18;3.00;;;2.00;;
84288;SDS011;75147;50.294;18.660;2024-03-25T14:03:44;3.65;;;2.30;;
84288;SDS011;75147;50.294;18.660;2024-03-25T14:06:11;3.70;;;2.08;;
84288;SDS011;75147;50.294;18.660;2024-03-25T14:08:36;2.72;;;1.90;;
84288;SDS011;75147;50.294;18.660;2024-03-25T14:11:02;3.13;;;1.80;;
84288;SDS011;75147;50.294;18.660;2024-03-25T14:13:28;2.95;;;2.00;;
84288;SDS011;75147;50.294;18.660;2024-03-25T14:15:54;4.25;;;2.50;;
84288;SDS011;75147;50.294;18.660;2024-03-25T14:18:19;2.95;;;2.10;;
84288;SDS011;75147;50.294;18.660;2024-03-25T14:20:44;3.28;;;2.20;;
84288;SDS011;75147;50.294;18.660;2024-03-25T14:23:12;2.88;;;1.70;;
84288;SDS011;75147;50.294;18.660;2024-03-25T14:25:38;2.42;;;1.80;;
84288;SDS011;75147;50.294;18.660;2024-03-25T14:28:03;3.50;;;2.10;;
84288;SDS011;75147;50.294;18.660;2024-03-25T14:30:29;3.03;;;2.10;;